sensor_id;sensor_type;location;lat;lon;timestamp;temperature;humidity
70154;DHT22;57519;51.494;-2.626;2022-10-31T00:02:03;12.90;91.10
70154;DHT22;57519;51.494;-2.626;2022-10-31T00:04:29;13.00;90.89
70154;DHT22;57519;51.494;-2.626;2022-10-31T00:06:54;12.99;90.88
70154;DHT22;57519;51.494;-2.626;2022-10-31T00:09:20;13.04;90.69
70154;DHT22;57519;51.494;-2.626;2022-10-31T00:11:45;13.04;90.62
70154;DHT22;57519;51.494;-2.626;2022-10-31T00:14:11;13.04;90.44
70154;DHT22;57519;51.494;-2.626;2022-10-31T00:16:36;13.00;90.57
70154;DHT22;57519;51.494;-2.626;2022-10-31T00:19:03;12.99;90.56
70154;DHT22;57519;51.494;-2.626;2022-10-31T00:21:30;12.93;90.39
70154;DHT22;57519;51.494;-2.626;2022-10-31T00:23:57;12.89;90.71
70154;DHT22;57519;51.494;-2.626;2022-10-31T00:26:23;12.92;90.79
70154;DHT22;57519;51.494;-2.626;2022-10-31T00:28:48;12.89;90.76
70154;DHT22;57519;51.494;-2.626;2022-10-31T00:31:14;12.83;90.94
70154;DHT22;57519;51.494;-2.626;2022-10-31T00:33:40;12.71;91.13
70154;DHT22;57519;51.494;-2.626;2022-10-31T00:36:07;12.68;91.29
70154;DHT22;57519;51.494;-2.626;2022-10-31T00:38:33;12.58;91.39
70154;DHT22;57519;51.494;-2.626;2022-10-31T00:40:58;12.49;91.63
70154;DHT22;57519;51.494;-2.626;2022-10-31T00:43:24;12.48;92.03
70154;DHT22;57519;51.494;-2.626;2022-10-31T00:45:49;12.51;92.30
70154;DHT22;57519;51.494;-2.626;2022-10-31T00:48:15;12.38;92.22
70154;DHT22;57519;51.494;-2.626;2022-10-31T00:50:41;12.44;92.53
70154;DHT22;57519;51.494;-2.626;2022-10-31T00:53:07;12.41;92.59
70154;DHT22;57519;51.494;-2.626;2022-10-31T00:55:33;12.40;92.50
70154;DHT22;57519;51.494;-2.626;2022-10-31T00:57:58;12.34;92.60
70154;DHT22;57519;51.494;-2.626;2022-10-31T01:00:24;12.28;92.85
70154;DHT22;57519;51.494;-2.626;2022-10-31T01:02:49;12.34;93.07
70154;DHT22;57519;51.494;-2.626;2022-10-31T01:05:15;12.35;93.12
70154;DHT22;57519;51.494;-2.626;2022-10-31T01:07:41;12.34;93.00
70154;DHT22;57519;51.494;-2.626;2022-10-31T01:10:07;12.32;93.03
70154;DHT22;57519;51.494;-2.626;2022-10-31T01:12:43;12.37;92.99
70154;DHT22;57519;51.494;-2.626;2022-10-31T01:15:10;12.40;93.07
70154;DHT22;57519;51.494;-2.626;2022-10-31T01:17:36;12.40;93.05
70154;DHT22;57519;51.494;-2.626;2022-10-31T01:20:03;12.38;92.98
70154;DHT22;57519;51.494;-2.626;2022-10-31T01:22:28;12.31;92.97
70154;DHT22;57519;51.494;-2.626;2022-10-31T01:24:54;12.38;93.08
70154;DHT22;57519;51.494;-2.626;2022-10-31T01:27:19;12.53;92.99
70154;DHT22;57519;51.494;-2.626;2022-10-31T01:29:48;12.45;92.70
70154;DHT22;57519;51.494;-2.626;2022-10-31T01:32:13;12.44;92.89
70154;DHT22;57519;51.494;-2.626;2022-10-31T01:34:39;12.48;92.93
70154;DHT22;57519;51.494;-2.626;2022-10-31T01:37:04;12.40;92.86
70154;DHT22;57519;51.494;-2.626;2022-10-31T01:39:29;12.48;93.13
70154;DHT22;57519;51.494;-2.626;2022-10-31T01:41:55;12.49;93.14
70154;DHT22;57519;51.494;-2.626;2022-10-31T01:49:51;12.58;93.01
70154;DHT22;57519;51.494;-2.626;2022-10-31T01:54:59;12.58;92.77
70154;DHT22;57519;51.494;-2.626;2022-10-31T01:57:25;12.52;92.82
70154;DHT22;57519;51.494;-2.626;2022-10-31T01:59:56;12.48;92.98
70154;DHT22;57519;51.494;-2.626;2022-10-31T02:02:23;12.49;93.19
70154;DHT22;57519;51.494;-2.626;2022-10-31T02:04:49;12.63;93.24
70154;DHT22;57519;51.494;-2.626;2022-10-31T02:07:19;12.62;92.82
70154;DHT22;57519;51.494;-2.626;2022-10-31T02:09:47;12.63;92.61
70154;DHT22;57519;51.494;-2.626;2022-10-31T02:12:14;12.62;92.76
70154;DHT22;57519;51.494;-2.626;2022-10-31T02:14:41;12.69;92.87
70154;DHT22;57519;51.494;-2.626;2022-10-31T02:17:07;12.66;92.74
70154;DHT22;57519;51.494;-2.626;2022-10-31T02:22:48;12.79;92.66
70154;DHT22;57519;51.494;-2.626;2022-10-31T02:35:59;12.88;92.19
70154;DHT22;57519;51.494;-2.626;2022-10-31T02:38:29;12.88;92.22
70154;DHT22;57519;51.494;-2.626;2022-10-31T02:41:20;12.85;92.01
70154;DHT22;57519;51.494;-2.626;2022-10-31T02:48:51;12.58;92.43
70154;DHT22;57519;51.494;-2.626;2022-10-31T02:51:18;12.61;92.72
70154;DHT22;57519;51.494;-2.626;2022-10-31T02:53:44;12.62;92.70
70154;DHT22;57519;51.494;-2.626;2022-10-31T02:56:17;12.59;92.72
70154;DHT22;57519;51.494;-2.626;2022-10-31T02:58:57;12.59;92.78
70154;DHT22;57519;51.494;-2.626;2022-10-31T03:12:26;12.53;92.69
70154;DHT22;57519;51.494;-2.626;2022-10-31T03:15:14;12.51;92.94
70154;DHT22;57519;51.494;-2.626;2022-10-31T03:20:37;12.44;92.93
70154;DHT22;57519;51.494;-2.626;2022-10-31T03:23:06;12.44;93.09
70154;DHT22;57519;51.494;-2.626;2022-10-31T03:25:36;12.34;93.12
70154;DHT22;57519;51.494;-2.626;2022-10-31T03:28:03;12.30;93.40
70154;DHT22;57519;51.494;-2.626;2022-10-31T03:30:33;12.25;93.41
70154;DHT22;57519;51.494;-2.626;2022-10-31T03:33:02;12.20;93.51
70154;DHT22;57519;51.494;-2.626;2022-10-31T03:35:30;12.16;93.61
70154;DHT22;57519;51.494;-2.626;2022-10-31T03:37:59;12.11;93.71
70154;DHT22;57519;51.494;-2.626;2022-10-31T03:40:26;12.04;93.91
70154;DHT22;57519;51.494;-2.626;2022-10-31T03:43:02;12.00;94.05
70154;DHT22;57519;51.494;-2.626;2022-10-31T03:45:30;12.05;94.33
70154;DHT22;57519;51.494;-2.626;2022-10-31T03:47:57;12.17;94.59
70154;DHT22;57519;51.494;-2.626;2022-10-31T03:50:27;12.18;94.56
70154;DHT22;57519;51.494;-2.626;2022-10-31T03:52:57;12.16;94.43
70154;DHT22;57519;51.494;-2.626;2022-10-31T03:55:33;12.17;94.37
70154;DHT22;57519;51.494;-2.626;2022-10-31T03:58:15;12.25;94.49
70154;DHT22;57519;51.494;-2.626;2022-10-31T04:00:45;12.25;94.38
70154;DHT22;57519;51.494;-2.626;2022-10-31T04:03:15;12.25;94.35
70154;DHT22;57519;51.494;-2.626;2022-10-31T04:05:44;12.30;94.39
70154;DHT22;57519;51.494;-2.626;2022-10-31T04:08:14;12.30;94.32
70154;DHT22;57519;51.494;-2.626;2022-10-31T04:10:42;12.32;94.29
70154;DHT22;57519;51.494;-2.626;2022-10-31T04:13:19;12.42;94.26
70154;DHT22;57519;51.494;-2.626;2022-10-31T04:15:46;12.42;94.07
70154;DHT22;57519;51.494;-2.626;2022-10-31T04:18:13;12.37;93.88
70154;DHT22;57519;51.494;-2.626;2022-10-31T04:20:40;12.40;93.93
70154;DHT22;57519;51.494;-2.626;2022-10-31T04:23:22;12.31;93.87
70154;DHT22;57519;51.494;-2.626;2022-10-31T04:25:48;12.24;93.88
70154;DHT22;57519;51.494;-2.626;2022-10-31T04:28:13;12.17;93.91
70154;DHT22;57519;51.494;-2.626;2022-10-31T04:30:39;12.18;94.10
70154;DHT22;57519;51.494;-2.626;2022-10-31T04:33:04;12.20;94.32
70154;DHT22;57519;51.494;-2.626;2022-10-31T04:35:29;12.24;94.35
70154;DHT22;57519;51.494;-2.626;2022-10-31T04:37:55;12.21;94.36
70154;DHT22;57519;51.494;-2.626;2022-10-31T04:40:20;12.24;94.34
70154;DHT22;57519;51.494;-2.626;2022-10-31T04:42:46;12.25;94.39
70154;DHT22;57519;51.494;-2.626;2022-10-31T04:45:11;12.23;94.40
70154;DHT22;57519;51.494;-2.626;2022-10-31T04:47:36;12.40;94.39
70154;DHT22;57519;51.494;-2.626;2022-10-31T04:50:02;12.46;94.18
70154;DHT22;57519;51.494;-2.626;2022-10-31T04:52:28;12.40;94.11
70154;DHT22;57519;51.494;-2.626;2022-10-31T04:54:53;12.38;94.05
70154;DHT22;57519;51.494;-2.626;2022-10-31T04:57:18;12.37;94.08
70154;DHT22;57519;51.494;-2.626;2022-10-31T04:59:44;12.42;94.20
70154;DHT22;57519;51.494;-2.626;2022-10-31T05:02:09;12.49;94.08
70154;DHT22;57519;51.494;-2.626;2022-10-31T05:04:35;12.46;93.84
70154;DHT22;57519;51.494;-2.626;2022-10-31T05:07:00;12.42;93.75
70154;DHT22;57519;51.494;-2.626;2022-10-31T05:09:25;12.34;93.73
70154;DHT22;57519;51.494;-2.626;2022-10-31T05:11:51;12.37;93.77
70154;DHT22;57519;51.494;-2.626;2022-10-31T05:14:16;12.31;93.75
70154;DHT22;57519;51.494;-2.626;2022-10-31T05:16:41;12.18;93.84
70154;DHT22;57519;51.494;-2.626;2022-10-31T05:19:07;12.24;94.03
70154;DHT22;57519;51.494;-2.626;2022-10-31T05:21:32;12.17;93.98
70154;DHT22;57519;51.494;-2.626;2022-10-31T05:23:58;12.13;94.03
70154;DHT22;57519;51.494;-2.626;2022-10-31T05:26:23;12.10;94.17
70154;DHT22;57519;51.494;-2.626;2022-10-31T05:28:48;12.01;94.18
70154;DHT22;57519;51.494;-2.626;2022-10-31T05:31:14;11.98;94.32
70154;DHT22;57519;51.494;-2.626;2022-10-31T05:33:39;11.98;94.41
70154;DHT22;57519;51.494;-2.626;2022-10-31T05:36:05;11.91;94.38
70154;DHT22;57519;51.494;-2.626;2022-10-31T05:38:30;11.89;94.50
70154;DHT22;57519;51.494;-2.626;2022-10-31T05:40:55;11.86;94.66
70154;DHT22;57519;51.494;-2.626;2022-10-31T05:43:26;11.89;94.74
70154;DHT22;57519;51.494;-2.626;2022-10-31T05:45:56;11.91;94.84
70154;DHT22;57519;51.494;-2.626;2022-10-31T05:48:21;11.93;94.74
70154;DHT22;57519;51.494;-2.626;2022-10-31T05:50:48;12.05;94.79
70154;DHT22;57519;51.494;-2.626;2022-10-31T05:53:14;12.03;94.71
70154;DHT22;57519;51.494;-2.626;2022-10-31T05:55:39;11.97;94.63
70154;DHT22;57519;51.494;-2.626;2022-10-31T05:58:08;11.97;94.73
70154;DHT22;57519;51.494;-2.626;2022-10-31T06:00:34;12.13;94.78
70154;DHT22;57519;51.494;-2.626;2022-10-31T06:03:06;12.14;94.65
70154;DHT22;57519;51.494;-2.626;2022-10-31T06:05:31;12.10;94.49
70154;DHT22;57519;51.494;-2.626;2022-10-31T06:07:57;12.05;94.40
70154;DHT22;57519;51.494;-2.626;2022-10-31T06:10:23;12.03;94.45
70154;DHT22;57519;51.494;-2.626;2022-10-31T06:12:49;12.04;94.60
70154;DHT22;57519;51.494;-2.626;2022-10-31T06:15:14;12.08;94.60
70154;DHT22;57519;51.494;-2.626;2022-10-31T06:17:40;12.14;94.62
70154;DHT22;57519;51.494;-2.626;2022-10-31T06:20:06;12.17;94.57
70154;DHT22;57519;51.494;-2.626;2022-10-31T06:22:32;12.18;94.45
70154;DHT22;57519;51.494;-2.626;2022-10-31T06:24:58;12.21;94.37
70154;DHT22;57519;51.494;-2.626;2022-10-31T06:27:23;12.23;94.27
70154;DHT22;57519;51.494;-2.626;2022-10-31T06:29:48;12.25;94.33
70154;DHT22;57519;51.494;-2.626;2022-10-31T06:32:14;12.40;94.34
70154;DHT22;57519;51.494;-2.626;2022-10-31T06:34:40;12.46;94.00
70154;DHT22;57519;51.494;-2.626;2022-10-31T06:37:07;12.38;93.78
70154;DHT22;57519;51.494;-2.626;2022-10-31T06:39:33;12.30;93.73
70154;DHT22;57519;51.494;-2.626;2022-10-31T06:41:58;12.18;93.86
70154;DHT22;57519;51.494;-2.626;2022-10-31T06:44:24;12.17;94.01
70154;DHT22;57519;51.494;-2.626;2022-10-31T06:46:49;12.16;94.14
70154;DHT22;57519;51.494;-2.626;2022-10-31T06:49:15;12.18;94.27
70154;DHT22;57519;51.494;-2.626;2022-10-31T06:51:40;12.28;94.21
70154;DHT22;57519;51.494;-2.626;2022-10-31T06:54:06;12.27;94.14
70154;DHT22;57519;51.494;-2.626;2022-10-31T06:56:31;12.30;94.16
70154;DHT22;57519;51.494;-2.626;2022-10-31T06:58:57;12.42;94.10
70154;DHT22;57519;51.494;-2.626;2022-10-31T07:01:22;12.41;93.93
70154;DHT22;57519;51.494;-2.626;2022-10-31T07:03:48;12.35;93.81
70154;DHT22;57519;51.494;-2.626;2022-10-31T07:06:13;12.31;93.94
70154;DHT22;57519;51.494;-2.626;2022-10-31T07:08:39;12.35;93.92
70154;DHT22;57519;51.494;-2.626;2022-10-31T07:11:04;12.37;93.94
70154;DHT22;57519;51.494;-2.626;2022-10-31T07:13:29;12.49;93.87
70154;DHT22;57519;51.494;-2.626;2022-10-31T07:16:00;12.49;93.64
70154;DHT22;57519;51.494;-2.626;2022-10-31T07:18:25;12.58;93.41
70154;DHT22;57519;51.494;-2.626;2022-10-31T07:20:52;12.53;93.33
70154;DHT22;57519;51.494;-2.626;2022-10-31T07:23:17;12.53;93.13
70154;DHT22;57519;51.494;-2.626;2022-10-31T07:25:43;12.63;92.96
70154;DHT22;57519;51.494;-2.626;2022-10-31T07:28:09;12.65;92.97
70154;DHT22;57519;51.494;-2.626;2022-10-31T07:30:34;12.69;92.88
70154;DHT22;57519;51.494;-2.626;2022-10-31T07:33:00;12.62;92.90
70154;DHT22;57519;51.494;-2.626;2022-10-31T07:35:27;12.65;92.99
70154;DHT22;57519;51.494;-2.626;2022-10-31T07:37:53;12.62;93.07
70154;DHT22;57519;51.494;-2.626;2022-10-31T07:40:20;12.63;92.88
70154;DHT22;57519;51.494;-2.626;2022-10-31T07:42:48;12.65;92.79
70154;DHT22;57519;51.494;-2.626;2022-10-31T07:45:16;12.61;92.88
70154;DHT22;57519;51.494;-2.626;2022-10-31T07:47:50;12.66;93.18
70154;DHT22;57519;51.494;-2.626;2022-10-31T07:50:26;12.66;92.96
70154;DHT22;57519;51.494;-2.626;2022-10-31T07:53:03;12.82;92.87
70154;DHT22;57519;51.494;-2.626;2022-10-31T07:55:29;12.92;92.75
70154;DHT22;57519;51.494;-2.626;2022-10-31T07:57:57;12.93;92.39
70154;DHT22;57519;51.494;-2.626;2022-10-31T08:00:23;13.03;92.24
70154;DHT22;57519;51.494;-2.626;2022-10-31T08:02:48;13.06;92.05
70154;DHT22;57519;51.494;-2.626;2022-10-31T08:05:21;13.21;91.84
70154;DHT22;57519;51.494;-2.626;2022-10-31T08:07:46;13.28;91.49
70154;DHT22;57519;51.494;-2.626;2022-10-31T08:10:11;13.30;91.13
70154;DHT22;57519;51.494;-2.626;2022-10-31T08:12:37;13.36;90.82
70154;DHT22;57519;51.494;-2.626;2022-10-31T08:15:02;13.36;90.99
70154;DHT22;57519;51.494;-2.626;2022-10-31T08:17:28;13.38;90.92
70154;DHT22;57519;51.494;-2.626;2022-10-31T08:19:54;13.41;90.87
70154;DHT22;57519;51.494;-2.626;2022-10-31T08:22:20;13.46;91.04
70154;DHT22;57519;51.494;-2.626;2022-10-31T08:24:45;13.44;90.86
70154;DHT22;57519;51.494;-2.626;2022-10-31T08:27:10;13.38;90.82
70154;DHT22;57519;51.494;-2.626;2022-10-31T08:29:36;13.41;90.66
70154;DHT22;57519;51.494;-2.626;2022-10-31T08:32:01;13.43;90.54
70154;DHT22;57519;51.494;-2.626;2022-10-31T08:34:27;13.47;90.31
70154;DHT22;57519;51.494;-2.626;2022-10-31T08:36:52;13.48;90.32
70154;DHT22;57519;51.494;-2.626;2022-10-31T08:39:17;13.58;90.05
70154;DHT22;57519;51.494;-2.626;2022-10-31T08:41:43;13.59;89.78
70154;DHT22;57519;51.494;-2.626;2022-10-31T08:44:08;13.62;89.66
70154;DHT22;57519;51.494;-2.626;2022-10-31T08:46:33;13.78;88.90
70154;DHT22;57519;51.494;-2.626;2022-10-31T08:48:59;13.79;88.86
70154;DHT22;57519;51.494;-2.626;2022-10-31T08:51:25;13.82;88.88
70154;DHT22;57519;51.494;-2.626;2022-10-31T08:53:50;13.82;88.75
70154;DHT22;57519;51.494;-2.626;2022-10-31T08:56:16;13.78;89.13
70154;DHT22;57519;51.494;-2.626;2022-10-31T08:58:41;13.81;88.87
70154;DHT22;57519;51.494;-2.626;2022-10-31T09:01:07;13.76;88.95
70154;DHT22;57519;51.494;-2.626;2022-10-31T09:03:32;13.81;88.79
70154;DHT22;57519;51.494;-2.626;2022-10-31T09:06:00;13.82;88.52
70154;DHT22;57519;51.494;-2.626;2022-10-31T09:08:25;13.78;88.60
70154;DHT22;57519;51.494;-2.626;2022-10-31T09:10:51;13.74;88.88
70154;DHT22;57519;51.494;-2.626;2022-10-31T09:13:19;13.68;89.08
70154;DHT22;57519;51.494;-2.626;2022-10-31T09:15:47;13.69;88.82
70154;DHT22;57519;51.494;-2.626;2022-10-31T09:18:14;13.71;88.96
70154;DHT22;57519;51.494;-2.626;2022-10-31T09:20:41;13.76;88.70
70154;DHT22;57519;51.494;-2.626;2022-10-31T09:23:09;13.90;88.25
70154;DHT22;57519;51.494;-2.626;2022-10-31T09:25:35;13.79;88.55
70154;DHT22;57519;51.494;-2.626;2022-10-31T09:28:02;13.72;88.87
70154;DHT22;57519;51.494;-2.626;2022-10-31T09:30:29;13.74;88.77
70154;DHT22;57519;51.494;-2.626;2022-10-31T09:33:05;13.81;88.65
70154;DHT22;57519;51.494;-2.626;2022-10-31T09:35:31;13.75;88.97
70154;DHT22;57519;51.494;-2.626;2022-10-31T09:38:01;13.71;89.17
70154;DHT22;57519;51.494;-2.626;2022-10-31T09:45:52;13.78;89.20
70154;DHT22;57519;51.494;-2.626;2022-10-31T09:51:01;14.06;88.31
70154;DHT22;57519;51.494;-2.626;2022-10-31T09:56:25;14.08;88.11
70154;DHT22;57519;51.494;-2.626;2022-10-31T09:58:57;14.09;88.16
70154;DHT22;57519;51.494;-2.626;2022-10-31T10:01:43;14.13;88.05
70154;DHT22;57519;51.494;-2.626;2022-10-31T10:06:53;14.20;87.95
70154;DHT22;57519;51.494;-2.626;2022-10-31T10:09:22;14.26;87.94
70154;DHT22;57519;51.494;-2.626;2022-10-31T10:11:59;14.32;87.51
70154;DHT22;57519;51.494;-2.626;2022-10-31T10:19:54;14.63;86.61
70154;DHT22;57519;51.494;-2.626;2022-10-31T10:33:12;14.72;86.13
70154;DHT22;57519;51.494;-2.626;2022-10-31T10:35:43;14.84;86.22
70154;DHT22;57519;51.494;-2.626;2022-10-31T10:38:37;15.00;85.60
70154;DHT22;57519;51.494;-2.626;2022-10-31T10:41:04;15.06;85.39
70154;DHT22;57519;51.494;-2.626;2022-10-31T10:43:36;15.05;84.54
70154;DHT22;57519;51.494;-2.626;2022-10-31T10:52:04;15.09;83.20
70154;DHT22;57519;51.494;-2.626;2022-10-31T10:59:46;15.06;82.63
70154;DHT22;57519;51.494;-2.626;2022-10-31T11:02:21;15.02;83.35
70154;DHT22;57519;51.494;-2.626;2022-10-31T11:04:55;15.12;82.96
70154;DHT22;57519;51.494;-2.626;2022-10-31T11:07:22;15.30;83.22
70154;DHT22;57519;51.494;-2.626;2022-10-31T11:09:47;15.50;82.44
70154;DHT22;57519;51.494;-2.626;2022-10-31T11:12:28;15.78;81.39
70154;DHT22;57519;51.494;-2.626;2022-10-31T11:14:57;15.71;81.22
70154;DHT22;57519;51.494;-2.626;2022-10-31T11:17:29;15.70;80.20
70154;DHT22;57519;51.494;-2.626;2022-10-31T11:22:41;15.50;81.01
70154;DHT22;57519;51.494;-2.626;2022-10-31T11:28:02;15.39;81.56
70154;DHT22;57519;51.494;-2.626;2022-10-31T11:30:28;15.42;80.54
70154;DHT22;57519;51.494;-2.626;2022-10-31T11:32:55;15.51;80.57
70154;DHT22;57519;51.494;-2.626;2022-10-31T11:35:22;15.43;81.05
70154;DHT22;57519;51.494;-2.626;2022-10-31T11:37:50;15.51;80.26
70154;DHT22;57519;51.494;-2.626;2022-10-31T11:40:25;15.39;81.14
70154;DHT22;57519;51.494;-2.626;2022-10-31T11:42:53;15.35;80.97
70154;DHT22;57519;51.494;-2.626;2022-10-31T11:47:50;15.19;81.97
70154;DHT22;57519;51.494;-2.626;2022-10-31T11:50:23;15.29;81.69
70154;DHT22;57519;51.494;-2.626;2022-10-31T11:52:50;15.23;81.53
70154;DHT22;57519;51.494;-2.626;2022-10-31T11:55:30;15.43;79.86
70154;DHT22;57519;51.494;-2.626;2022-10-31T11:57:59;15.61;77.59
70154;DHT22;57519;51.494;-2.626;2022-10-31T12:00:32;15.64;77.83
70154;DHT22;57519;51.494;-2.626;2022-10-31T12:06:00;15.87;76.86
70154;DHT22;57519;51.494;-2.626;2022-10-31T12:08:30;15.84;77.25
70154;DHT22;57519;51.494;-2.626;2022-10-31T12:11:31;16.01;76.29
70154;DHT22;57519;51.494;-2.626;2022-10-31T12:16:52;16.18;76.40
70154;DHT22;57519;51.494;-2.626;2022-10-31T12:19:52;16.45;76.11
70154;DHT22;57519;51.494;-2.626;2022-10-31T12:25:13;16.80;74.46
70154;DHT22;57519;51.494;-2.626;2022-10-31T12:33:21;16.56;74.77
70154;DHT22;57519;51.494;-2.626;2022-10-31T12:41:47;16.46;75.16
70154;DHT22;57519;51.494;-2.626;2022-10-31T12:57:59;16.46;73.19
70154;DHT22;57519;51.494;-2.626;2022-10-31T13:00:26;16.53;73.54
70154;DHT22;57519;51.494;-2.626;2022-10-31T13:03:08;16.64;74.04
70154;DHT22;57519;51.494;-2.626;2022-10-31T13:05:45;17.03;72.58
70154;DHT22;57519;51.494;-2.626;2022-10-31T13:08:16;17.22;71.71
70154;DHT22;57519;51.494;-2.626;2022-10-31T13:10:46;17.11;70.34
70154;DHT22;57519;51.494;-2.626;2022-10-31T13:13:21;17.21;69.50
70154;DHT22;57519;51.494;-2.626;2022-10-31T13:15:56;17.14;69.61
70154;DHT22;57519;51.494;-2.626;2022-10-31T13:18:34;17.01;71.44
70154;DHT22;57519;51.494;-2.626;2022-10-31T13:21:06;16.90;70.45
70154;DHT22;57519;51.494;-2.626;2022-10-31T13:23:35;16.83;69.77
70154;DHT22;57519;51.494;-2.626;2022-10-31T13:26:13;16.91;69.54
70154;DHT22;57519;51.494;-2.626;2022-10-31T13:28:47;17.08;67.70
70154;DHT22;57519;51.494;-2.626;2022-10-31T13:31:14;17.15;67.97
70154;DHT22;57519;51.494;-2.626;2022-10-31T13:33:49;17.15;68.63
70154;DHT22;57519;51.494;-2.626;2022-10-31T13:41:52;17.25;68.65
70154;DHT22;57519;51.494;-2.626;2022-10-31T13:44:24;17.10;68.88
70154;DHT22;57519;51.494;-2.626;2022-10-31T13:46:51;17.03;69.27
70154;DHT22;57519;51.494;-2.626;2022-10-31T13:52:13;16.90;69.12
70154;DHT22;57519;51.494;-2.626;2022-10-31T13:54:47;16.81;69.79
70154;DHT22;57519;51.494;-2.626;2022-10-31T13:57:18;16.77;69.22
70154;DHT22;57519;51.494;-2.626;2022-10-31T13:59:50;16.66;69.65
70154;DHT22;57519;51.494;-2.626;2022-10-31T14:02:21;16.71;70.39
70154;DHT22;57519;51.494;-2.626;2022-10-31T14:04:52;16.66;70.19
70154;DHT22;57519;51.494;-2.626;2022-10-31T14:07:21;16.60;70.41
70154;DHT22;57519;51.494;-2.626;2022-10-31T14:12:35;16.62;70.29
70154;DHT22;57519;51.494;-2.626;2022-10-31T14:15:25;16.56;70.68
70154;DHT22;57519;51.494;-2.626;2022-10-31T14:20:40;16.56;72.08
70154;DHT22;57519;51.494;-2.626;2022-10-31T14:25:53;16.62;70.55
70154;DHT22;57519;51.494;-2.626;2022-10-31T14:28:32;16.55;71.38
70154;DHT22;57519;51.494;-2.626;2022-10-31T14:30:58;16.50;71.44
70154;DHT22;57519;51.494;-2.626;2022-10-31T14:33:27;16.41;71.61
70154;DHT22;57519;51.494;-2.626;2022-10-31T14:36:18;16.46;70.87
70154;DHT22;57519;51.494;-2.626;2022-10-31T14:51:39;16.16;73.06
70154;DHT22;57519;51.494;-2.626;2022-10-31T14:54:10;16.01;73.50
70154;DHT22;57519;51.494;-2.626;2022-10-31T14:56:46;15.98;73.10
70154;DHT22;57519;51.494;-2.626;2022-10-31T14:59:15;15.78;74.36
70154;DHT22;57519;51.494;-2.626;2022-10-31T15:01:52;15.70;74.68
70154;DHT22;57519;51.494;-2.626;2022-10-31T15:04:23;15.66;75.27
70154;DHT22;57519;51.494;-2.626;2022-10-31T15:07:02;15.63;75.62
70154;DHT22;57519;51.494;-2.626;2022-10-31T15:09:32;15.53;76.33
70154;DHT22;57519;51.494;-2.626;2022-10-31T15:14:46;15.32;78.99
70154;DHT22;57519;51.494;-2.626;2022-10-31T15:17:11;15.27;79.08
70154;DHT22;57519;51.494;-2.626;2022-10-31T15:19:37;15.16;79.85
70154;DHT22;57519;51.494;-2.626;2022-10-31T15:22:03;15.03;81.08
70154;DHT22;57519;51.494;-2.626;2022-10-31T15:24:37;14.95;81.29
70154;DHT22;57519;51.494;-2.626;2022-10-31T15:27:04;14.81;82.58
70154;DHT22;57519;51.494;-2.626;2022-10-31T15:29:30;14.70;83.28
70154;DHT22;57519;51.494;-2.626;2022-10-31T15:31:58;14.63;83.46
70154;DHT22;57519;51.494;-2.626;2022-10-31T15:34:37;14.60;84.43
70154;DHT22;57519;51.494;-2.626;2022-10-31T15:37:04;14.59;85.25
70154;DHT22;57519;51.494;-2.626;2022-10-31T15:39:30;14.56;85.97
70154;DHT22;57519;51.494;-2.626;2022-10-31T15:41:57;14.40;86.17
70154;DHT22;57519;51.494;-2.626;2022-10-31T15:44:29;14.29;87.60
70154;DHT22;57519;51.494;-2.626;2022-10-31T15:49:40;14.10;87.96
70154;DHT22;57519;51.494;-2.626;2022-10-31T15:52:13;13.98;89.31
70154;DHT22;57519;51.494;-2.626;2022-10-31T15:54:46;13.86;89.93
70154;DHT22;57519;51.494;-2.626;2022-10-31T15:57:12;13.86;90.22
70154;DHT22;57519;51.494;-2.626;2022-10-31T15:59:42;13.83;90.79
70154;DHT22;57519;51.494;-2.626;2022-10-31T16:02:13;13.78;91.18
70154;DHT22;57519;51.494;-2.626;2022-10-31T16:04:49;13.75;91.64
70154;DHT22;57519;51.494;-2.626;2022-10-31T16:07:17;13.69;91.87
70154;DHT22;57519;51.494;-2.626;2022-10-31T16:09:56;13.69;92.13
70154;DHT22;57519;51.494;-2.626;2022-10-31T16:12:23;13.72;92.43
70154;DHT22;57519;51.494;-2.626;2022-10-31T16:14:54;13.74;92.17
70154;DHT22;57519;51.494;-2.626;2022-10-31T16:17:22;13.68;92.24
70154;DHT22;57519;51.494;-2.626;2022-10-31T16:19:55;13.68;92.03
70154;DHT22;57519;51.494;-2.626;2022-10-31T16:22:25;13.65;92.11
70154;DHT22;57519;51.494;-2.626;2022-10-31T16:27:31;13.65;92.05
70154;DHT22;57519;51.494;-2.626;2022-10-31T16:29:59;13.65;91.76
70154;DHT22;57519;51.494;-2.626;2022-10-31T16:32:50;13.69;91.74
70154;DHT22;57519;51.494;-2.626;2022-10-31T16:35:37;13.68;91.79
70154;DHT22;57519;51.494;-2.626;2022-10-31T16:38:03;13.65;91.78
70154;DHT22;57519;51.494;-2.626;2022-10-31T16:40:29;13.75;90.59
70154;DHT22;57519;51.494;-2.626;2022-10-31T16:42:58;13.74;91.04
70154;DHT22;57519;51.494;-2.626;2022-10-31T16:45:25;13.68;91.41
70154;DHT22;57519;51.494;-2.626;2022-10-31T16:47:52;13.72;90.62
70154;DHT22;57519;51.494;-2.626;2022-10-31T16:50:21;13.71;90.99
70154;DHT22;57519;51.494;-2.626;2022-10-31T16:52:47;13.69;91.37
70154;DHT22;57519;51.494;-2.626;2022-10-31T16:55:14;13.74;91.17
70154;DHT22;57519;51.494;-2.626;2022-10-31T16:57:45;13.75;90.96
70154;DHT22;57519;51.494;-2.626;2022-10-31T17:00:17;13.66;91.30
70154;DHT22;57519;51.494;-2.626;2022-10-31T17:02:45;13.71;91.01
70154;DHT22;57519;51.494;-2.626;2022-10-31T17:05:13;13.74;90.80
70154;DHT22;57519;51.494;-2.626;2022-10-31T17:07:39;13.65;91.13
70154;DHT22;57519;51.494;-2.626;2022-10-31T17:10:04;13.71;91.13
70154;DHT22;57519;51.494;-2.626;2022-10-31T17:12:30;13.68;91.21
70154;DHT22;57519;51.494;-2.626;2022-10-31T17:14:56;13.74;90.84
70154;DHT22;57519;51.494;-2.626;2022-10-31T17:17:21;13.68;91.27
70154;DHT22;57519;51.494;-2.626;2022-10-31T17:19:47;13.64;91.14
70154;DHT22;57519;51.494;-2.626;2022-10-31T17:22:13;13.71;90.87
70154;DHT22;57519;51.494;-2.626;2022-10-31T17:24:39;13.65;91.24
70154;DHT22;57519;51.494;-2.626;2022-10-31T17:27:05;13.64;91.30
70154;DHT22;57519;51.494;-2.626;2022-10-31T17:29:31;13.66;91.62
70154;DHT22;57519;51.494;-2.626;2022-10-31T17:31:57;13.61;91.41
70154;DHT22;57519;51.494;-2.626;2022-10-31T17:34:22;13.69;91.02
70154;DHT22;57519;51.494;-2.626;2022-10-31T17:36:51;13.62;91.09
70154;DHT22;57519;51.494;-2.626;2022-10-31T17:39:20;13.57;91.59
70154;DHT22;57519;51.494;-2.626;2022-10-31T17:41:50;13.54;91.96
70154;DHT22;57519;51.494;-2.626;2022-10-31T17:44:17;13.51;92.20
70154;DHT22;57519;51.494;-2.626;2022-10-31T17:46:42;13.47;92.44
70154;DHT22;57519;51.494;-2.626;2022-10-31T17:49:10;13.47;92.64
70154;DHT22;57519;51.494;-2.626;2022-10-31T17:51:36;13.41;93.07
70154;DHT22;57519;51.494;-2.626;2022-10-31T17:54:01;13.38;93.47
70154;DHT22;57519;51.494;-2.626;2022-10-31T17:56:27;13.38;93.49
70154;DHT22;57519;51.494;-2.626;2022-10-31T17:58:53;13.38;93.57
70154;DHT22;57519;51.494;-2.626;2022-10-31T18:01:21;13.40;93.58
70154;DHT22;57519;51.494;-2.626;2022-10-31T18:03:46;13.41;93.71
70154;DHT22;57519;51.494;-2.626;2022-10-31T18:06:11;13.41;93.90